createdAt,value
2023-05-11T00:01:34.741Z,98023.78
2023-05-11T00:04:22.297Z,98015.94
2023-05-11T00:07:11.717Z,98017.81
2023-05-11T00:09:59.255Z,98021.47
2023-05-11T00:12:47.354Z,98013.44
2023-05-11T00:15:35.211Z,98020.78
2023-05-11T00:18:23.585Z,98022.78
2023-05-11T00:21:11.555Z,98015.16
2023-05-11T00:24:00.872Z,98022.53
2023-05-11T00:26:48.641Z,98020.38
2023-05-11T00:29:36.583Z,98018.88
2023-05-11T00:32:24.576Z,98015.56
2023-05-11T00:35:13.406Z,98019.56
2023-05-11T00:38:01.195Z,98012.59
2023-05-11T00:40:51.054Z,98014.25
2023-05-11T00:43:38.663Z,98003.56
2023-05-11T00:46:27.752Z,98003.56
2023-05-11T00:49:17.285Z,98008.91
2023-05-11T00:52:05.408Z,98007.25
2023-05-11T00:54:53.050Z,98003.91
2023-05-11T00:57:42.550Z,98002.28
2023-05-11T01:00:30.628Z,98002.28
2023-05-11T01:03:19.433Z,98005.13
2023-05-11T01:06:11.583Z,98007.16
2023-05-11T01:09:07.274Z,98010.97
2023-05-11T01:12:06.607Z,98009.16
2023-05-11T01:15:03.305Z,98009.31
2023-05-11T01:17:57.022Z,98008.66
2023-05-11T01:20:47.949Z,98006.84
2023-05-11T01:24:13.182Z,98001.69
2023-05-11T01:27:33.192Z,98004.53
2023-05-11T01:30:30.812Z,98003.69
2023-05-11T01:33:22.773Z,98005.72
2023-05-11T01:36:12.637Z,98009.34
2023-05-11T01:39:05.495Z,98004.19
2023-05-11T01:41:54.659Z,98006.88
2023-05-11T01:44:49.263Z,98002.56
2023-05-11T01:47:39.689Z,98010.09
2023-05-11T01:50:27.868Z,98011.06
2023-05-11T01:53:16.728Z,98006.75
2023-05-11T01:56:05.564Z,98007.09
2023-05-11T01:58:55.292Z,98014.09
2023-05-11T02:01:43.786Z,98014.25
2023-05-11T02:04:35.488Z,98009.09
2023-05-11T02:07:25.522Z,98009.09
2023-05-11T02:10:16.272Z,98012.47
2023-05-11T02:13:06.274Z,98011.47
2023-05-11T02:15:57.337Z,98010.00
2023-05-11T02:18:46.090Z,98009.16
2023-05-11T02:21:37.385Z,98012.84
2023-05-11T02:24:26.225Z,98012.66
2023-05-11T02:27:14.090Z,98004.19
2023-05-11T02:30:01.785Z,97996.19
2023-05-11T02:32:52.979Z,98009.50
2023-05-11T02:35:44.847Z,98007.00
2023-05-11T02:38:35.889Z,98002.88
2023-05-11T02:41:28.832Z,97999.53
2023-05-11T02:44:18.725Z,97999.72
2023-05-11T02:47:12.437Z,98001.72
2023-05-11T02:50:04.161Z,97997.56
2023-05-11T02:52:55.871Z,97999.59
2023-05-11T02:55:45.268Z,98000.56
2023-05-11T02:58:34.020Z,98000.75
2023-05-11T03:01:22.550Z,98000.91
2023-05-11T03:04:10.493Z,97995.94
2023-05-11T03:06:58.549Z,97993.63
2023-05-11T03:09:46.519Z,97993.63
2023-05-11T03:12:36.376Z,97995.63
2023-05-11T03:15:25.178Z,97987.81
2023-05-11T03:18:14.257Z,97994.31
2023-05-11T03:21:03.371Z,97992.66
2023-05-11T03:23:51.786Z,97996.31
2023-05-11T03:26:40.521Z,98003.66
2023-05-11T03:29:32.808Z,97999.00
2023-05-11T03:32:20.652Z,97991.84
2023-05-11T03:35:09.904Z,97989.19
2023-05-11T03:37:59.930Z,97995.34
2023-05-11T03:40:48.763Z,97999.00
2023-05-11T03:43:39.056Z,97986.69
2023-05-11T03:46:29.770Z,97987.72
2023-05-11T03:49:19.614Z,97983.38
2023-05-11T03:52:08.337Z,97991.34
2023-05-11T03:54:56.427Z,97988.88
2023-05-11T03:57:44.886Z,97987.56
2023-05-11T04:00:32.992Z,97987.56
2023-05-11T04:03:22.485Z,97982.41
2023-05-11T04:06:10.774Z,97980.75
2023-05-11T04:08:58.853Z,97982.75
2023-05-11T04:11:46.854Z,97982.56
2023-05-11T04:14:34.945Z,97976.59
2023-05-11T04:17:22.845Z,97986.41
2023-05-11T04:20:12.616Z,97975.09
2023-05-11T04:23:01.077Z,97979.44
2023-05-11T04:25:53.816Z,97982.28
2023-05-11T04:28:41.788Z,97980.59
2023-05-11T04:31:30.413Z,97986.75
2023-05-11T04:34:18.906Z,97980.59
2023-05-11T04:37:08.035Z,97985.75
2023-05-11T04:39:55.707Z,97988.22
2023-05-11T04:42:43.566Z,97993.72
2023-05-11T04:45:31.706Z,97991.41
2023-05-11T04:48:20.832Z,97992.91
2023-05-11T04:51:09.329Z,97987.44
2023-05-11T04:53:58.693Z,97992.75
2023-05-11T04:56:46.355Z,97997.41
2023-05-11T04:59:34.545Z,97996.22
2023-05-11T05:02:22.672Z,97996.06
2023-05-11T05:05:11.239Z,97996.72
2023-05-11T05:07:58.944Z,97995.72
2023-05-11T05:10:48.988Z,97999.03
2023-05-11T05:13:36.609Z,97996.22
2023-05-11T05:16:24.532Z,97996.84
2023-05-11T05:19:13.216Z,97998.19
2023-05-11T05:22:01.031Z,98001.66
2023-05-11T05:24:49.124Z,98003.34
2023-05-11T05:27:38.470Z,98004.34
2023-05-11T05:30:26.553Z,98007.50
2023-05-11T05:33:14.443Z,98016.97
2023-05-11T05:36:02.773Z,98013.50
2023-05-11T05:38:50.783Z,98016.97
2023-05-11T05:41:38.730Z,98021.31
2023-05-11T05:44:27.950Z,98016.00
2023-05-11T05:47:15.905Z,98018.47
2023-05-11T05:50:03.926Z,98021.78
2023-05-11T05:52:52.040Z,98022.63
2023-05-11T05:55:39.995Z,98018.09
2023-05-11T05:58:28.181Z,98027.94
2023-05-11T06:01:17.564Z,98027.94
2023-05-11T06:04:05.722Z,98025.13
2023-05-11T06:06:53.624Z,98034.59
2023-05-11T06:09:41.558Z,98029.09
2023-05-11T06:12:29.626Z,98028.75
2023-05-11T06:15:17.741Z,98032.91
2023-05-11T06:18:07.182Z,98032.38
2023-05-11T06:20:54.882Z,98032.03
2023-05-11T06:23:42.774Z,98035.84
2023-05-11T06:26:30.893Z,98025.84
2023-05-11T06:29:22.269Z,98021.66
2023-05-11T06:32:13.648Z,98030.13
2023-05-11T06:35:02.742Z,98032.47
2023-05-11T06:37:50.745Z,98033.75
2023-05-11T06:40:38.668Z,98030.75
2023-05-11T06:43:26.793Z,98022.41
2023-05-11T06:46:17.658Z,98026.38
2023-05-11T06:49:05.780Z,98028.69
2023-05-11T06:51:56.783Z,98031.31
2023-05-11T06:54:45.126Z,98023.59
2023-05-11T06:57:33.160Z,98026.25
2023-05-11T07:00:21.714Z,98031.84
2023-05-11T07:03:09.606Z,98032.16
2023-05-11T07:05:57.480Z,98031.66
2023-05-11T07:08:46.722Z,98027.47
2023-05-11T07:11:35.128Z,98033.28
2023-05-11T07:14:22.907Z,98036.13
2023-05-11T07:17:10.956Z,98035.78
2023-05-11T07:19:58.911Z,98042.41
2023-05-11T07:22:48.856Z,98038.53
2023-05-11T07:25:38.476Z,98031.03
2023-05-11T07:28:26.601Z,98041.97
2023-05-11T07:31:14.567Z,98039.44
2023-05-11T07:34:02.486Z,98036.22
2023-05-11T07:36:50.499Z,98038.38
2023-05-11T07:39:38.509Z,98035.97
2023-05-11T07:42:27.830Z,98041.13
2023-05-11T07:45:15.541Z,98045.94
2023-05-11T07:48:03.960Z,98037.75
2023-05-11T07:50:51.588Z,98033.88
2023-05-11T07:53:39.526Z,98037.03
2023-05-11T07:56:27.489Z,98037.69
2023-05-11T07:59:16.761Z,98034.00
2023-05-11T08:02:04.858Z,98041.63
2023-05-11T08:04:52.741Z,98032.44
2023-05-11T08:07:41.690Z,98037.41
2023-05-11T08:10:29.805Z,98035.56
2023-05-11T08:13:17.561Z,98038.06
2023-05-11T08:16:08.124Z,98036.88
2023-05-11T08:18:56.125Z,98044.34
2023-05-11T08:21:46.267Z,98039.84
2023-05-11T08:24:34.213Z,98045.81
2023-05-11T08:27:22.179Z,98045.44
2023-05-11T08:30:11.950Z,98041.13
2023-05-11T08:33:13.694Z,98040.75
2023-05-11T08:36:13.212Z,98042.41
2023-05-11T08:39:01.281Z,98049.41
2023-05-11T08:41:51.413Z,98050.25
2023-05-11T08:44:41.264Z,98042.03
2023-05-11T08:47:29.962Z,98040.41
2023-05-11T08:50:19.906Z,98041.19
2023-05-11T08:53:08.140Z,98040.41
2023-05-11T08:55:58.963Z,98037.72
2023-05-11T08:58:48.888Z,98039.91
2023-05-11T09:01:38.092Z,98034.03
2023-05-11T09:04:27.093Z,98038.63
2023-05-11T09:07:17.951Z,98037.25
2023-05-11T09:10:06.669Z,98031.53
2023-05-11T09:12:54.307Z,98034.50
2023-05-11T09:15:42.309Z,98034.59
2023-05-11T09:18:30.323Z,98034.03
2023-05-11T09:21:18.775Z,98034.69
2023-05-11T09:24:08.523Z,98033.31
2023-05-11T09:27:11.448Z,98036.47
2023-05-11T09:30:10.585Z,98042.25
2023-05-11T09:33:00.225Z,98040.25
2023-05-11T09:35:48.135Z,98033.88
2023-05-11T09:38:36.388Z,98031.00
2023-05-11T09:41:26.074Z,98026.50
2023-05-11T09:44:15.986Z,98030.81
2023-05-11T09:47:13.503Z,98023.47
2023-05-11T09:50:16.483Z,98029.44
2023-05-11T09:53:04.347Z,98019.38
2023-05-11T09:55:54.128Z,98028.69
2023-05-11T09:58:52.494Z,98027.94
2023-05-11T10:01:41.170Z,98028.22
2023-05-11T10:04:31.377Z,98023.13
2023-05-11T10:07:27.235Z,98018.88
2023-05-11T10:10:16.417Z,98019.31
2023-05-11T10:13:04.973Z,98018.94
2023-05-11T10:15:55.664Z,98017.91
2023-05-11T10:18:45.150Z,98014.44
2023-05-11T10:21:33.544Z,98014.44
2023-05-11T10:24:21.640Z,98023.25
2023-05-11T10:27:09.941Z,98009.88
2023-05-11T10:29:59.275Z,98010.72
2023-05-11T10:32:48.729Z,98008.91
2023-05-11T10:35:39.574Z,98009.50
2023-05-11T10:38:28.467Z,98002.13
2023-05-11T10:41:30.938Z,98001.75
2023-05-11T10:44:46.617Z,97995.75
2023-05-11T10:47:54.258Z,98008.13
2023-05-11T10:50:57.915Z,97998.06
2023-05-11T10:54:00.113Z,97991.69
2023-05-11T10:57:13.805Z,97986.97
2023-05-11T11:00:43.668Z,97996.03
2023-05-11T11:03:33.365Z,97993.97
2023-05-11T11:06:25.958Z,97989.72
2023-05-11T11:09:14.567Z,97987.47
2023-05-11T11:12:11.530Z,97994.50
2023-05-11T11:15:00.767Z,97987.09
2023-05-11T11:17:49.021Z,97987.94
2023-05-11T11:20:50.361Z,97989.16
2023-05-11T11:24:01.265Z,97990.81
2023-05-11T11:26:50.514Z,97987.09
2023-05-11T11:29:40.002Z,97980.09
2023-05-11T11:32:29.495Z,97981.13
2023-05-11T11:35:49.741Z,97985.56
2023-05-11T11:39:01.445Z,97985.75
2023-05-11T11:42:02.620Z,97994.38
2023-05-11T11:44:50.504Z,97994.22
2023-05-11T11:47:39.385Z,97997.41
2023-05-11T11:50:29.803Z,98005.06
2023-05-11T11:54:08.521Z,98005.28
2023-05-11T11:56:57.784Z,97998.09
2023-05-11T11:59:48.701Z,97996.13
2023-05-11T12:02:43.297Z,97998.84
2023-05-11T12:05:32.255Z,97998.22
2023-05-11T12:08:21.675Z,98001.72
2023-05-11T12:11:09.924Z,97998.66
2023-05-11T12:14:00.330Z,97996.25
2023-05-11T12:17:03.189Z,97999.94
2023-05-11T12:19:51.115Z,97997.03
2023-05-11T12:22:38.836Z,98000.25
2023-05-11T12:25:26.831Z,97999.88
2023-05-11T12:28:14.923Z,97999.69
2023-05-11T12:31:04.040Z,98005.69
2023-05-11T12:33:53.156Z,97999.69
2023-05-11T12:36:41.245Z,98000.53
2023-05-11T12:39:29.593Z,98004.34
2023-05-11T12:42:20.585Z,97998.22
2023-05-11T12:45:09.992Z,98004.38
2023-05-11T12:47:59.702Z,98005.59
2023-05-11T12:50:48.260Z,98000.63
2023-05-11T12:53:37.616Z,97998.97
2023-05-11T12:56:25.547Z,97999.53
2023-05-11T12:59:30.212Z,98000.56
2023-05-11T13:02:19.481Z,97993.53
2023-05-11T13:05:19.436Z,97992.91
2023-05-11T13:08:08.577Z,97998.47
2023-05-11T13:10:56.654Z,97987.28
2023-05-11T13:13:44.897Z,97987.28
2023-05-11T13:16:34.059Z,97986.25
2023-05-11T13:19:30.065Z,97984.63
2023-05-11T13:22:21.300Z,97979.09
2023-05-11T13:25:10.097Z,97982.22
2023-05-11T13:27:57.777Z,97981.56
2023-05-11T13:30:46.646Z,97978.72
2023-05-11T13:33:34.762Z,97976.28
2023-05-11T13:36:22.843Z,97984.59
2023-05-11T13:39:12.221Z,97978.38
2023-05-11T13:41:59.896Z,97980.06
2023-05-11T13:44:47.953Z,97976.38
2023-05-11T13:47:37.241Z,97986.59
2023-05-11T13:50:26.054Z,97989.47
2023-05-11T13:53:14.896Z,97984.53
2023-05-11T13:56:04.384Z,97994.56
2023-05-11T13:58:52.408Z,97991.00
2023-05-11T14:01:40.207Z,97989.69
2023-05-11T14:04:28.074Z,97990.69
2023-05-11T14:07:16.309Z,97985.03
2023-05-11T14:10:04.236Z,97981.50
2023-05-11T14:12:53.425Z,97977.19
2023-05-11T14:15:41.455Z,97970.53
2023-05-11T14:18:29.567Z,97963.91
2023-05-11T14:21:17.608Z,97966.94
2023-05-11T14:24:12.180Z,97972.28
2023-05-11T14:27:00.763Z,97968.78
2023-05-11T14:29:51.172Z,97969.63
2023-05-11T14:32:38.990Z,97965.94
2023-05-11T14:35:26.869Z,97973.56
2023-05-11T14:38:14.854Z,97972.19
2023-05-11T14:41:03.396Z,97964.47
2023-05-11T14:43:51.337Z,97967.41
2023-05-11T14:46:40.873Z,97972.00
2023-05-11T14:49:28.843Z,97970.03
2023-05-11T14:52:16.562Z,97969.28
2023-05-11T14:55:05.150Z,97967.69
2023-05-11T14:57:53.689Z,97974.34
2023-05-11T15:00:41.588Z,97965.56
2023-05-11T15:03:31.054Z,97962.28
2023-05-11T15:06:21.585Z,97967.25
2023-05-11T15:09:09.834Z,97969.56
2023-05-11T15:11:59.700Z,97970.41
2023-05-11T15:14:47.669Z,97959.03
2023-05-11T15:17:36.186Z,97960.28
2023-05-11T15:20:25.469Z,97957.13
2023-05-11T15:23:16.616Z,97961.88
2023-05-11T15:26:04.784Z,97966.56
2023-05-11T15:28:52.772Z,97977.25
2023-05-11T15:31:40.709Z,97968.25
2023-05-11T15:34:28.582Z,97969.88
2023-05-11T15:37:17.843Z,97970.72
2023-05-11T15:40:06.494Z,97976.88
2023-05-11T15:42:58.787Z,97974.22
2023-05-11T15:45:47.086Z,97968.25
2023-05-11T15:48:35.392Z,97978.94
2023-05-11T15:51:23.246Z,97976.66
2023-05-11T15:54:12.625Z,97974.97
2023-05-11T15:57:00.507Z,97965.28
2023-05-11T15:59:48.781Z,97967.69
2023-05-11T16:02:36.562Z,97969.75
2023-05-11T16:05:24.620Z,97965.81
2023-05-11T16:08:12.310Z,97968.84
2023-05-11T16:11:01.704Z,97972.09
2023-05-11T16:13:49.471Z,97976.97
2023-05-11T16:16:37.826Z,97981.03
2023-05-11T16:19:27.817Z,97990.47
2023-05-11T16:22:15.586Z,98014.94
2023-05-11T16:25:03.608Z,98017.94
2023-05-11T16:27:52.958Z,98008.41
2023-05-11T16:30:41.019Z,98002.88
2023-05-11T16:33:29.057Z,98005.56
2023-05-11T16:36:16.912Z,98002.63
2023-05-11T16:39:04.855Z,98002.34
2023-05-11T16:41:52.828Z,97995.34
2023-05-11T16:44:42.036Z,98006.94
2023-05-11T16:47:29.782Z,98002.13
2023-05-11T16:50:18.785Z,98002.97
2023-05-11T16:53:06.989Z,98003.22
2023-05-11T16:55:55.895Z,98003.31
2023-05-11T16:58:44.466Z,98001.81
2023-05-11T17:01:35.281Z,98006.00
2023-05-11T17:04:23.073Z,98001.56
2023-05-11T17:07:11.614Z,97994.09
2023-05-11T17:09:59.655Z,97995.78
2023-05-11T17:12:47.984Z,98006.81
2023-05-11T17:15:35.831Z,98009.09
2023-05-11T17:18:25.278Z,98015.81
2023-05-11T17:21:13.527Z,98012.66
2023-05-11T17:24:01.300Z,98022.13
2023-05-11T17:26:49.413Z,98028.66
2023-05-11T17:29:37.358Z,98026.84
2023-05-11T17:32:25.776Z,98030.50
2023-05-11T17:35:15.355Z,98030.03
2023-05-11T17:38:04.318Z,98041.50
2023-05-11T17:40:52.276Z,98051.28
2023-05-11T17:43:40.165Z,98050.44
2023-05-11T17:46:29.847Z,98047.41
2023-05-11T17:49:18.053Z,98055.94
2023-05-11T17:52:08.524Z,98052.78
2023-05-11T17:54:56.573Z,98062.31
2023-05-11T17:57:44.287Z,98060.66
2023-05-11T18:00:32.476Z,98067.28
2023-05-11T18:03:20.430Z,98060.66
2023-05-11T18:06:08.478Z,98073.66
2023-05-11T18:08:57.581Z,98069.16
2023-05-11T18:11:45.278Z,98072.34
2023-05-11T18:14:33.257Z,98078.19
2023-05-11T18:17:21.920Z,98076.81
2023-05-11T18:20:10.328Z,98073.31
2023-05-11T18:22:58.384Z,98063.94
2023-05-11T18:25:48.335Z,98070.13
2023-05-11T18:28:36.467Z,98063.94
2023-05-11T18:31:24.677Z,98070.63
2023-05-11T18:34:12.362Z,98080.00
2023-05-11T18:37:01.351Z,98086.50
2023-05-11T18:39:50.209Z,98091.19
2023-05-11T18:42:39.660Z,98087.38
2023-05-11T18:45:30.256Z,98087.03
2023-05-11T18:48:19.627Z,98084.19
2023-05-11T18:51:08.083Z,98088.38
2023-05-11T18:53:56.098Z,98076.53
2023-05-11T18:56:44.075Z,98091.56
2023-05-11T18:59:33.730Z,98089.22
2023-05-11T19:02:21.747Z,98093.88
2023-05-11T19:05:11.052Z,98095.53
2023-05-11T19:07:59.096Z,98097.41
2023-05-11T19:10:48.003Z,98098.56
2023-05-11T19:13:36.745Z,98105.06
2023-05-11T19:16:26.184Z,98104.91
2023-05-11T19:19:14.073Z,98115.25
2023-05-11T19:22:02.089Z,98117.91
2023-05-11T19:24:50.137Z,98121.56
2023-05-11T19:27:38.076Z,98116.91
2023-05-11T19:30:26.294Z,98123.56
2023-05-11T19:33:15.803Z,98117.75
2023-05-11T19:36:04.070Z,98128.91
2023-05-11T19:38:52.449Z,98121.06
2023-05-11T19:41:40.274Z,98122.56
2023-05-11T19:44:32.685Z,98122.56
2023-05-11T19:47:20.407Z,98130.53
2023-05-11T19:50:11.029Z,98121.41
2023-05-11T19:52:58.946Z,98123.56
2023-05-11T19:55:48.282Z,98132.41
2023-05-11T19:58:36.597Z,98127.88
2023-05-11T20:01:24.470Z,98129.91
2023-05-11T20:04:14.728Z,98128.56
2023-05-11T20:07:04.254Z,98130.56
2023-05-11T20:09:52.238Z,98133.91
2023-05-11T20:12:40.217Z,98135.72
2023-05-11T20:15:28.006Z,98132.50
2023-05-11T20:18:16.253Z,98138.16
2023-05-11T20:21:04.330Z,98127.50
2023-05-11T20:23:53.431Z,98133.16
2023-05-11T20:26:41.144Z,98136.84
2023-05-11T20:29:29.217Z,98131.53
2023-05-11T20:32:18.388Z,98138.50
2023-05-11T20:35:07.536Z,98142.50
2023-05-11T20:37:55.532Z,98131.84
2023-05-11T20:40:44.987Z,98139.19
2023-05-11T20:43:32.763Z,98139.50
2023-05-11T20:46:20.949Z,98134.19
2023-05-11T20:49:09.128Z,98131.69
2023-05-11T20:51:56.853Z,98130.84
2023-05-11T20:54:44.828Z,98136.19
2023-05-11T20:57:37.215Z,98135.34
2023-05-11T21:00:25.493Z,98138.16
2023-05-11T21:03:13.861Z,98125.84
2023-05-11T21:06:01.851Z,98130.50
2023-05-11T21:08:50.137Z,98134.16
2023-05-11T21:11:37.783Z,98134.16
2023-05-11T21:14:27.393Z,98134.34
2023-05-11T21:17:15.747Z,98129.84
2023-05-11T21:20:04.858Z,98132.50
2023-05-11T21:22:53.717Z,98122.19
2023-05-11T21:25:41.820Z,98124.03
2023-05-11T21:28:34.582Z,98125.88
2023-05-11T21:31:23.721Z,98119.88
2023-05-11T21:34:12.196Z,98122.69
2023-05-11T21:37:00.547Z,98118.38
2023-05-11T21:39:49.174Z,98122.00
2023-05-11T21:42:36.780Z,98124.03
2023-05-11T21:45:24.870Z,98129.50
2023-05-11T21:48:14.209Z,98124.34
2023-05-11T21:51:01.823Z,98125.31
2023-05-11T21:53:50.223Z,98121.84
2023-05-11T21:56:38.313Z,98126.50
2023-05-11T21:59:26.814Z,98135.47
2023-05-11T22:02:14.641Z,98126.66
2023-05-11T22:05:03.991Z,98129.47
2023-05-11T22:07:53.971Z,98134.00
2023-05-11T22:10:45.782Z,98124.31
2023-05-11T22:13:34.067Z,98126.97
2023-05-11T22:16:21.693Z,98128.00
2023-05-11T22:19:10.377Z,98127.16
2023-05-11T22:21:59.848Z,98140.59
2023-05-11T22:24:47.704Z,98132.78
2023-05-11T22:27:36.016Z,98136.47
2023-05-11T22:30:23.942Z,98136.47
2023-05-11T22:33:11.818Z,98122.47
2023-05-11T22:36:00.162Z,98128.63
2023-05-11T22:38:49.346Z,98139.28
2023-05-11T22:41:37.046Z,98145.44
2023-05-11T22:44:24.983Z,98145.94
2023-05-11T22:47:13.161Z,98139.09
2023-05-11T22:50:01.589Z,98138.28
2023-05-11T22:52:49.359Z,98140.09
2023-05-11T22:55:38.677Z,98141.09
2023-05-11T22:58:27.003Z,98134.13
2023-05-11T23:01:15.017Z,98136.09
2023-05-11T23:04:02.879Z,98140.56
2023-05-11T23:06:50.560Z,98129.94
2023-05-11T23:09:38.595Z,98131.09
2023-05-11T23:12:43.035Z,98134.75
2023-05-11T23:15:31.998Z,98133.91
2023-05-11T23:18:19.821Z,98136.41
2023-05-11T23:21:08.327Z,98129.75
2023-05-11T23:23:56.212Z,98135.56
2023-05-11T23:26:44.261Z,98140.41
2023-05-11T23:29:33.549Z,98139.25
2023-05-11T23:32:21.312Z,98144.69
2023-05-11T23:35:10.807Z,98140.88
2023-05-11T23:37:58.626Z,98135.56
2023-05-11T23:40:46.571Z,98136.53
2023-05-11T23:43:34.797Z,98131.22
2023-05-11T23:46:23.870Z,98130.91
2023-05-11T23:49:11.689Z,98128.09
2023-05-11T23:51:59.712Z,98129.56
2023-05-11T23:54:49.438Z,98127.06
2023-05-11T23:57:37.722Z,98130.09
